createdAt,value
2022-09-17T00:03:55.685Z,99531.13
2022-09-17T00:08:58.481Z,99538.41
2022-09-17T00:14:03.579Z,99534.97
2022-09-17T00:19:10.138Z,99534.13
2022-09-17T00:24:14.238Z,99552.44
2022-09-17T00:29:17.206Z,99544.38
2022-09-17T00:34:23.955Z,99547.66
2022-09-17T00:39:26.508Z,99550.09
2022-09-17T00:44:46.116Z,99549.19
2022-09-17T00:49:53.358Z,99548.50
2022-09-17T00:55:01.352Z,99552.56
2022-09-17T01:00:06.426Z,99554.78
2022-09-17T01:05:12.090Z,99550.97
2022-09-17T01:10:27.608Z,99557.28
2022-09-17T01:15:37.267Z,99560.75
2022-09-17T01:21:08.253Z,99558.16
2022-09-17T01:26:35.163Z,99561.44
2022-09-17T01:31:47.117Z,99563.13
2022-09-17T01:37:01.563Z,99557.47
2022-09-17T01:42:13.229Z,99560.25
2022-09-17T01:47:22.602Z,99554.00
2022-09-17T01:52:28.937Z,99553.19
2022-09-17T01:57:36.619Z,99564.72
2022-09-17T02:02:45.365Z,99573.84
2022-09-17T02:07:53.297Z,99569.19
2022-09-17T02:13:00.401Z,99561.63
2022-09-17T02:18:08.668Z,99574.41
2022-09-17T02:23:16.627Z,99571.19
2022-09-17T02:28:27.788Z,99566.72
2022-09-17T02:33:34.649Z,99554.84
2022-09-17T02:38:39.438Z,99558.53
2022-09-17T02:43:51.557Z,99562.00
2022-09-17T02:49:10.169Z,99560.66
2022-09-17T02:54:19.279Z,99558.47
2022-09-17T02:59:26.277Z,99556.84
2022-09-17T03:04:31.876Z,99553.19
2022-09-17T03:09:34.285Z,99566.66
2022-09-17T03:14:36.713Z,99556.97
2022-09-17T03:19:40.580Z,99558.34
2022-09-17T03:24:43.031Z,99562.91
2022-09-17T03:29:45.492Z,99559.88
2022-09-17T03:34:49.248Z,99562.25
2022-09-17T03:39:51.771Z,99563.06
2022-09-17T03:44:54.192Z,99564.28
2022-09-17T03:49:57.943Z,99571.91
2022-09-17T03:55:00.421Z,99559.34
2022-09-17T04:00:03.129Z,99565.59
2022-09-17T04:05:12.239Z,99562.38
2022-09-17T04:10:14.720Z,99564.88
2022-09-17T04:15:17.206Z,99570.88
2022-09-17T04:20:20.979Z,99580.59
2022-09-17T04:25:23.496Z,99582.88
2022-09-17T04:30:26.016Z,99586.94
2022-09-17T04:35:29.985Z,99593.59
2022-09-17T04:40:32.544Z,99591.16
2022-09-17T04:45:34.986Z,99586.31
2022-09-17T04:50:38.734Z,99586.13
2022-09-17T04:55:41.172Z,99585.63
2022-09-17T05:00:43.731Z,99598.97
2022-09-17T05:05:47.562Z,99600.09
2022-09-17T05:10:51.105Z,99607.06
2022-09-17T05:15:56.490Z,99624.81
2022-09-17T05:21:00.270Z,99615.53
2022-09-17T05:26:02.886Z,99624.84
2022-09-17T05:31:05.431Z,99613.69
2022-09-17T05:36:09.844Z,99625.88
2022-09-17T05:41:12.281Z,99625.22
2022-09-17T05:46:14.784Z,99632.00
2022-09-17T05:51:20.385Z,99635.22
2022-09-17T05:56:23.968Z,99645.41
2022-09-17T06:01:26.677Z,99646.69
2022-09-17T06:06:30.988Z,99653.84
2022-09-17T06:11:33.639Z,99653.47
2022-09-17T06:16:36.364Z,99659.78
2022-09-17T06:21:40.182Z,99659.72
2022-09-17T06:26:42.809Z,99668.28
2022-09-17T06:31:46.125Z,99669.69
2022-09-17T06:36:51.181Z,99674.28
2022-09-17T06:41:55.522Z,99671.31
2022-09-17T06:46:58.118Z,99675.59
2022-09-17T06:52:02.207Z,99675.91
2022-09-17T06:57:04.931Z,99674.59
2022-09-17T07:02:08.147Z,99679.09
2022-09-17T07:07:11.995Z,99670.13
2022-09-17T07:12:14.949Z,99675.78
2022-09-17T07:17:17.407Z,99664.78
2022-09-17T07:22:21.173Z,99664.22
2022-09-17T07:27:23.805Z,99669.63
2022-09-17T07:32:26.613Z,99671.53
2022-09-17T07:37:30.406Z,99659.91
2022-09-17T07:42:33.383Z,99675.88
2022-09-17T07:47:40.306Z,99673.97
2022-09-17T07:52:48.062Z,99690.22
2022-09-17T07:57:53.686Z,99693.78
2022-09-17T08:02:56.746Z,99683.06
2022-09-17T08:08:00.607Z,99688.47
2022-09-17T08:13:03.092Z,99704.56
2022-09-17T08:18:05.605Z,99710.22
2022-09-17T08:23:09.458Z,99705.72
2022-09-17T08:28:11.947Z,99697.84
2022-09-17T08:33:14.378Z,99687.53
2022-09-17T08:38:18.455Z,99728.03
2022-09-17T08:43:21.008Z,99740.41
2022-09-17T08:48:26.594Z,99741.34
2022-09-17T08:53:56.939Z,99743.44
2022-09-17T08:59:21.445Z,99751.38
2022-09-17T09:04:33.498Z,99748.97
2022-09-17T09:09:41.298Z,99761.03
2022-09-17T09:14:50.057Z,99764.75
2022-09-17T09:19:54.397Z,99771.50
2022-09-17T09:25:13.101Z,99772.72
2022-09-17T09:30:18.675Z,99766.47
2022-09-17T09:35:23.280Z,99777.28
2022-09-17T09:40:47.958Z,99783.25
2022-09-17T09:46:08.651Z,99776.72
2022-09-17T09:51:24.494Z,99791.31
2022-09-17T09:56:39.710Z,99775.66
2022-09-17T10:01:45.195Z,99772.63
2022-09-17T10:06:50.499Z,99771.00
2022-09-17T10:12:07.498Z,99780.53
2022-09-17T10:17:16.958Z,99767.81
2022-09-17T10:22:24.819Z,99762.81
2022-09-17T10:27:29.988Z,99760.72
2022-09-17T10:32:32.436Z,99758.06
2022-09-17T10:37:44.226Z,99743.94
2022-09-17T10:42:48.790Z,99743.25
2022-09-17T10:47:52.062Z,99731.34
2022-09-17T10:52:57.251Z,99733.16
2022-09-17T10:58:24.164Z,99732.41
2022-09-17T11:03:53.097Z,99745.75
2022-09-17T11:09:11.028Z,99739.66
2022-09-17T11:14:28.282Z,99755.88
2022-09-17T11:19:41.599Z,99739.06
2022-09-17T11:25:08.927Z,99726.78
2022-09-17T11:30:17.904Z,99722.97
2022-09-17T11:35:25.131Z,99756.13
2022-09-17T11:40:36.984Z,99747.78
2022-09-17T11:45:46.565Z,99740.69
2022-09-17T11:50:54.434Z,99726.00
2022-09-17T11:56:00.811Z,99706.75
2022-09-17T12:01:09.464Z,99711.84
2022-09-17T12:06:17.328Z,99707.88
2022-09-17T12:11:23.892Z,99703.56
2022-09-17T12:16:32.864Z,99699.31
2022-09-17T12:21:42.968Z,99700.97
2022-09-17T12:26:59.367Z,99694.91
2022-09-17T12:32:14.617Z,99713.19
2022-09-17T12:37:25.920Z,99700.28
2022-09-17T12:42:48.567Z,99709.13
2022-09-17T12:48:24.708Z,99702.84
2022-09-17T12:53:31.726Z,99687.69
2022-09-17T12:58:56.409Z,99713.59
2022-09-17T13:04:29.796Z,99693.25
2022-09-17T13:10:13.731Z,99685.00
2022-09-17T13:15:31.655Z,99696.44
2022-09-17T13:20:43.133Z,99678.25
2022-09-17T13:25:53.425Z,99688.16
2022-09-17T13:30:57.957Z,99675.00
2022-09-17T13:36:03.684Z,99679.50
2022-09-17T13:41:20.398Z,99671.94
2022-09-17T13:46:24.982Z,99655.72
2022-09-17T13:51:57.321Z,99665.69
2022-09-17T13:57:10.129Z,99649.44
2022-09-17T14:02:35.470Z,99651.31
2022-09-17T14:07:58.899Z,99654.09
2022-09-17T14:13:28.490Z,99654.63
2022-09-17T14:18:37.286Z,99651.78
2022-09-17T14:23:46.371Z,99656.78
2022-09-17T14:28:55.492Z,99686.44
2022-09-17T14:33:58.550Z,99663.41
2022-09-17T14:39:03.770Z,99648.44
2022-09-17T14:44:11.354Z,99656.97
2022-09-17T14:49:16.066Z,99647.19
2022-09-17T14:54:26.104Z,99646.09
2022-09-17T14:59:50.211Z,99657.22
2022-09-17T15:04:52.594Z,99648.78
2022-09-17T15:10:07.565Z,99658.03
2022-09-17T15:15:19.303Z,99660.78
2022-09-17T15:20:24.933Z,99654.31
2022-09-17T15:25:32.333Z,99655.16
2022-09-17T15:30:34.898Z,99665.88
2022-09-17T15:35:37.372Z,99686.59
2022-09-17T15:40:42.637Z,99698.66
2022-09-17T15:45:45.436Z,99698.03
2022-09-17T15:50:53.218Z,99696.09
2022-09-17T15:56:09.532Z,99687.94
2022-09-17T16:01:54.056Z,99699.19
2022-09-17T16:07:03.894Z,99691.41
2022-09-17T16:12:08.112Z,99692.81
2022-09-17T16:17:22.980Z,99700.72
2022-09-17T16:22:26.405Z,99707.69
2022-09-17T16:27:33.817Z,99700.75
2022-09-17T16:32:36.541Z,99699.97
2022-09-17T16:37:39.011Z,99703.00
2022-09-17T16:42:42.865Z,99709.69
2022-09-17T16:47:45.351Z,99701.16
2022-09-17T16:52:47.851Z,99694.38
2022-09-17T16:57:51.923Z,99694.59
2022-09-17T17:02:57.275Z,99696.31
2022-09-17T17:08:03.242Z,99692.03
2022-09-17T17:13:10.966Z,99689.78
2022-09-17T17:18:13.446Z,99691.56
2022-09-17T17:23:16.062Z,99690.50
2022-09-17T17:28:20.297Z,99686.94
2022-09-17T17:33:22.736Z,99703.16
2022-09-17T17:38:25.281Z,99720.72
2022-09-17T17:43:29.006Z,99735.88
2022-09-17T17:48:31.461Z,99742.53
2022-09-17T17:53:34.304Z,99747.69
2022-09-17T17:58:38.586Z,99724.53
2022-09-17T18:03:41.415Z,99734.88
2022-09-17T18:08:45.535Z,99725.66
2022-09-17T18:13:52.144Z,99721.84
2022-09-17T18:18:57.140Z,99730.66
2022-09-17T18:23:59.749Z,99746.66
2022-09-17T18:29:07.721Z,99745.31
2022-09-17T18:34:13.144Z,99754.63
2022-09-17T18:39:56.466Z,99765.00
2022-09-17T18:44:40.273Z,99763.84
2022-09-17T18:49:42.676Z,99779.78
2022-09-17T18:54:45.904Z,99779.69
2022-09-17T18:59:50.516Z,99782.53
2022-09-17T19:04:53.739Z,99778.13
2022-09-17T19:09:57.612Z,99783.88
2022-09-17T19:15:01.607Z,99764.47
2022-09-17T19:20:05.612Z,99767.13
2022-09-17T19:25:09.438Z,99761.47
2022-09-17T19:30:14.582Z,99763.19
2022-09-17T19:35:17.537Z,99755.44
2022-09-17T19:40:20.896Z,99755.56
2022-09-17T19:45:25.893Z,99754.59
2022-09-17T19:50:35.695Z,99748.88
2022-09-17T19:55:39.254Z,99738.28
2022-09-17T20:00:43.629Z,99735.03
2022-09-17T20:05:46.074Z,99732.00
2022-09-17T20:10:50.176Z,99739.19
2022-09-17T20:15:53.969Z,99736.34
2022-09-17T20:20:56.615Z,99736.06
2022-09-17T20:26:10.553Z,99748.44
2022-09-17T20:31:16.616Z,99757.78
2022-09-17T20:36:20.893Z,99740.13
2022-09-17T20:41:23.356Z,99740.47
2022-09-17T20:46:29.223Z,99753.66
2022-09-17T20:51:32.720Z,99752.47
2022-09-17T20:56:36.068Z,99757.28
2022-09-17T21:01:40.669Z,99758.75
2022-09-17T21:06:43.537Z,99765.03
2022-09-17T21:11:47.459Z,99767.75
2022-09-17T21:16:51.803Z,99754.72
2022-09-17T21:21:54.636Z,99755.66
2022-09-17T21:26:57.116Z,99747.22
2022-09-17T21:32:01.222Z,99753.34
2022-09-17T21:37:04.954Z,99753.69
2022-09-17T21:42:07.952Z,99752.06
2022-09-17T21:47:12.524Z,99751.38
2022-09-17T21:52:15.064Z,99755.56
2022-09-17T21:57:17.514Z,99760.59
2022-09-17T22:02:21.232Z,99754.41
2022-09-17T22:07:23.642Z,99751.34
2022-09-17T22:12:26.045Z,99736.25
2022-09-17T22:17:29.989Z,99730.66
2022-09-17T22:22:32.479Z,99737.97
2022-09-17T22:27:35.123Z,99732.50
2022-09-17T22:32:39.195Z,99734.69
2022-09-17T22:37:41.663Z,99741.41
2022-09-17T22:42:44.096Z,99724.25
2022-09-17T22:47:47.845Z,99733.13
2022-09-17T22:52:50.375Z,99733.25
2022-09-17T22:57:52.856Z,99736.81
2022-09-17T23:02:56.613Z,99750.88
2022-09-17T23:07:59.095Z,99743.66
2022-09-17T23:13:01.547Z,99751.81
2022-09-17T23:18:05.798Z,99742.59
2022-09-17T23:23:08.266Z,99744.81
2022-09-17T23:28:13.420Z,99755.81
2022-09-17T23:33:17.192Z,99754.78
2022-09-17T23:38:19.645Z,99751.78
2022-09-17T23:43:22.298Z,99747.78
2022-09-17T23:48:26.134Z,99763.75
2022-09-17T23:53:30.333Z,99759.53
2022-09-17T23:58:34.224Z,99757.97
